Time;durP1;ratioP1;P1;durP2;ratioP2;P2;SDS_P1;SDS_P2;PMS_P1;PMS_P2;Temp;Humidity;BMP_temperature;BMP_pressure;BME280_temperature;BME280_humidity;BME280_pressure;Samples;Min_cycle;Max_cycle;Signal;HPM_P1;HPM_P2
2022/04/18 00:00:36;;;;;;;19.67;11.98;;;9.70;85.40;;;;;;5017239;28;20088;-70
2022/04/18 00:03:03;;;;;;;16.75;11.15;;;9.70;85.80;;;;;;5000935;28;20037;-70
2022/04/18 00:05:33;;;;;;;16.17;11.60;;;9.60;86.60;;;;;;5000685;28;20156;-70
2022/04/18 00:07:59;;;;;;;16.02;10.73;;;9.70;84.50;;;;;;5017369;28;20045;-71
2022/04/18 00:10:25;;;;;;;15.85;11.10;;;9.60;84.30;;;;;;5000749;28;20107;-70
2022/04/18 00:12:51;;;;;;;15.52;11.10;;;9.60;84.40;;;;;;5017050;28;20049;-71
2022/04/18 00:15:16;;;;;;;15.52;11.02;;;9.60;84.60;;;;;;4999990;28;20056;-70
2022/04/18 00:17:43;;;;;;;16.25;11.27;;;9.50;84.70;;;;;;5000774;28;20041;-70
2022/04/18 00:20:10;;;;;;;15.70;10.73;;;9.40;85.70;;;;;;5000824;28;20459;-70
2022/04/18 00:22:36;;;;;;;15.27;11.00;;;9.40;85.20;;;;;;5017235;28;20041;-70
2022/04/18 00:25:02;;;;;;;16.13;11.05;;;9.30;85.50;;;;;;5000601;28;20371;-70
2022/04/18 00:27:27;;;;;;;17.63;11.35;;;9.30;85.80;;;;;;5017179;28;20092;-70
2022/04/18 00:29:53;;;;;;;13.75;10.38;;;9.30;86.00;;;;;;5016792;28;20395;-70
2022/04/18 00:32:19;;;;;;;15.80;10.65;;;9.30;85.70;;;;;;5016818;28;20128;-71
2022/04/18 00:34:44;;;;;;;15.55;10.75;;;9.10;86.40;;;;;;5000274;28;20037;-71
2022/04/18 00:37:10;;;;;;;16.08;11.45;;;8.90;86.30;;;;;;5000367;28;20091;-70
2022/04/18 00:39:36;;;;;;;15.10;10.63;;;9.00;87.10;;;;;;5000065;28;20033;-70
2022/04/18 00:42:01;;;;;;;15.60;11.20;;;9.00;86.90;;;;;;5016806;28;20033;-70
2022/04/18 00:44:27;;;;;;;14.93;10.80;;;8.90;87.30;;;;;;5016442;28;20049;-71
2022/04/18 00:46:53;;;;;;;16.80;10.93;;;8.90;87.50;;;;;;4999684;28;20041;-70
2022/04/18 00:49:18;;;;;;;17.35;11.57;;;8.90;87.80;;;;;;5009202;28;20046;-71
2022/04/18 00:51:44;;;;;;;15.18;10.80;;;8.80;87.90;;;;;;4996790;28;20406;-70
2022/04/18 00:54:12;;;;;;;18.42;11.07;;;8.80;87.90;;;;;;4997035;28;20054;-70
2022/04/18 00:56:37;;;;;;;15.27;10.93;;;8.80;87.70;;;;;;4996540;28;20133;-70
2022/04/18 00:59:03;;;;;;;18.15;12.32;;;8.70;87.50;;;;;;5001646;28;20128;-70
2022/04/18 01:01:29;;;;;;;14.80;11.40;;;8.70;87.40;;;;;;4999778;28;20084;-71
2022/04/18 01:03:55;;;;;;;19.25;12.10;;;8.70;87.30;;;;;;4999977;28;20056;-70
2022/04/18 01:06:20;;;;;;;16.33;12.32;;;8.70;87.40;;;;;;5015842;28;20045;-70
2022/04/18 01:08:48;;;;;;;15.95;12.27;;;8.60;87.90;;;;;;5013298;28;20091;-70
2022/04/18 01:11:14;;;;;;;18.58;12.70;;;8.50;88.10;;;;;;4980305;28;20128;-70
2022/04/18 01:13:45;;;;;;;19.77;12.07;;;8.40;88.30;;;;;;4996614;28;20477;-72
2022/04/18 01:16:11;;;;;;;19.23;13.05;;;8.40;88.40;;;;;;4995947;28;20459;-70
2022/04/18 01:18:38;;;;;;;17.23;12.10;;;8.40;88.40;;;;;;4997820;28;20037;-70
2022/04/18 01:21:05;;;;;;;18.08;12.20;;;8.40;88.30;;;;;;5016095;28;20037;-70
2022/04/18 01:23:32;;;;;;;17.95;11.80;;;8.30;88.10;;;;;;5015854;28;20128;-71
2022/04/18 01:29:01;;;;;;;18.42;12.35;;;8.40;88.10;;;;;;5013753;28;20049;-70
2022/04/18 01:31:34;;;;;;;20.60;13.00;;;8.30;87.90;;;;;;4979995;28;20042;-69
2022/04/18 01:34:00;;;;;;;17.65;11.90;;;8.30;87.50;;;;;;4996186;28;20045;-69
2022/04/18 01:36:27;;;;;;;18.35;12.20;;;8.30;87.00;;;;;;4995951;28;20125;-70
2022/04/18 01:38:52;;;;;;;16.42;12.43;;;8.30;87.20;;;;;;4999719;28;20029;-69
2022/04/18 01:41:19;;;;;;;16.80;12.38;;;8.20;87.30;;;;;;4999579;28;20051;-69
2022/04/18 01:43:44;;;;;;;20.00;12.27;;;8.20;87.30;;;;;;5015577;28;20041;-69
2022/04/18 01:46:10;;;;;;;19.33;12.57;;;8.20;87.80;;;;;;5015385;28;20060;-69
2022/04/18 01:48:36;;;;;;;19.67;13.60;;;8.20;87.60;;;;;;5014694;28;20049;-69
2022/04/18 01:51:02;;;;;;;18.15;12.77;;;8.20;87.50;;;;;;4996036;28;20046;-68
2022/04/18 01:53:30;;;;;;;17.23;12.50;;;8.20;87.60;;;;;;4996071;28;20033;-68
2022/04/18 01:55:55;;;;;;;16.58;12.48;;;8.20;87.50;;;;;;4995626;28;20049;-69
2022/04/18 01:58:21;;;;;;;17.70;13.23;;;8.20;87.10;;;;;;4996276;28;20363;-69
2022/04/18 02:00:47;;;;;;;19.33;13.40;;;8.10;87.20;;;;;;5014206;28;20048;-69
2022/04/18 02:03:12;;;;;;;18.20;13.18;;;8.10;87.30;;;;;;4998970;28;20091;-69
2022/04/18 02:05:42;;;;;;;17.55;12.73;;;8.00;87.30;;;;;;4999253;28;20046;-71
2022/04/18 02:08:07;;;;;;;17.63;12.88;;;8.10;87.50;;;;;;4999551;28;20442;-69
2022/04/18 02:10:33;;;;;;;19.27;13.63;;;8.00;87.20;;;;;;4982241;28;20438;-69
2022/04/18 02:12:59;;;;;;;20.60;12.82;;;8.00;87.20;;;;;;4995826;28;20052;-69
2022/04/18 02:15:25;;;;;;;20.80;13.20;;;8.00;87.20;;;;;;4995283;28;20053;-69
2022/04/18 02:17:50;;;;;;;20.67;13.57;;;8.00;87.20;;;;;;4995549;28;20048;-69
2022/04/18 02:20:16;;;;;;;19.48;13.77;;;8.00;87.20;;;;;;5027229;28;20041;-69
2022/04/18 02:22:42;;;;;;;19.48;12.82;;;7.90;87.40;;;;;;4999062;28;20076;-70
2022/04/18 02:25:08;;;;;;;21.55;14.98;;;7.90;87.80;;;;;;5015301;28;20037;-69
2022/04/18 02:27:36;;;;;;;21.58;14.35;;;7.80;87.90;;;;;;5015419;28;20121;-69
2022/04/18 02:30:05;;;;;;;20.98;14.25;;;7.90;87.50;;;;;;5015522;28;20037;-69
2022/04/18 02:32:49;;;;;;;18.30;13.20;;;7.80;88.00;;;;;;5015396;28;20048;-69
2022/04/18 02:35:17;;;;;;;21.10;13.90;;;7.80;87.80;;;;;;5032955;28;20052;-68
2022/04/18 02:37:43;;;;;;;18.83;13.90;;;7.80;88.50;;;;;;5000690;28;20103;-69
2022/04/18 02:40:09;;;;;;;21.65;14.13;;;7.70;88.40;;;;;;5018818;28;20045;-70
2022/04/18 02:42:35;;;;;;;20.77;14.07;;;7.70;88.10;;;;;;5019005;28;20041;-69
2022/04/18 02:45:00;;;;;;;21.42;14.02;;;7.70;88.00;;;;;;5018331;28;20056;-69
2022/04/18 02:47:26;;;;;;;21.40;14.52;;;7.70;87.80;;;;;;5018732;28;20045;-71
2022/04/18 02:49:52;;;;;;;20.83;15.20;;;7.70;88.10;;;;;;5008073;28;20056;-69
2022/04/18 02:52:18;;;;;;;20.58;13.90;;;7.70;88.10;;;;;;4999210;28;20463;-69
2022/04/18 02:54:44;;;;;;;22.48;15.10;;;7.70;88.10;;;;;;4999217;28;20049;-69
2022/04/18 02:57:11;;;;;;;22.08;14.32;;;7.60;88.40;;;;;;4999225;28;20049;-68
2022/04/18 02:59:38;;;;;;;21.65;13.88;;;7.60;88.90;;;;;;4991408;28;20038;-68
2022/04/18 03:02:04;;;;;;;21.48;14.57;;;7.50;89.10;;;;;;5018547;28;20045;-69
2022/04/18 03:04:29;;;;;;;19.33;14.90;;;7.50;89.30;;;;;;5002354;28;20053;-69
2022/04/18 03:06:55;;;;;;;22.65;15.05;;;7.60;89.30;;;;;;5018866;28;20050;-69
2022/04/18 03:09:21;;;;;;;21.58;14.68;;;7.50;89.30;;;;;;5001947;28;20352;-69
2022/04/18 03:11:47;;;;;;;24.35;14.70;;;7.50;89.40;;;;;;5018506;28;20045;-69
2022/04/18 03:14:12;;;;;;;20.65;13.82;;;7.50;90.10;;;;;;5018464;28;20045;-70
2022/04/18 03:16:38;;;;;;;20.38;15.25;;;7.50;89.30;;;;;;5001750;28;20045;-69
2022/04/18 03:19:04;;;;;;;20.95;14.38;;;7.40;89.60;;;;;;5018420;28;20371;-69
2022/04/18 03:21:29;;;;;;;22.13;14.45;;;7.40;89.40;;;;;;5018343;28;20045;-70
2022/04/18 03:23:55;;;;;;;20.95;14.88;;;7.40;89.50;;;;;;5002136;28;20041;-69
2022/04/18 03:26:21;;;;;;;22.42;15.45;;;7.40;89.80;;;;;;5018216;28;20052;-69
2022/04/18 03:28:46;;;;;;;22.50;15.15;;;7.40;90.00;;;;;;5018157;28;20464;-69
2022/04/18 03:31:12;;;;;;;23.13;15.77;;;7.40;90.00;;;;;;5001906;28;20478;-68
2022/04/18 03:33:38;;;;;;;22.25;14.60;;;7.30;89.80;;;;;;5018229;28;20053;-69
2022/04/18 03:41:32;;;;;;;20.50;14.85;;;7.10;90.30;;;;;;5018006;28;20038;-70
2022/04/18 03:43:58;;;;;;;21.45;15.18;;;7.10;90.30;;;;;;5017646;28;20057;-69
2022/04/18 03:46:24;;;;;;;19.77;14.20;;;7.20;90.40;;;;;;5017672;28;20037;-69
2022/04/18 03:48:49;;;;;;;21.88;14.52;;;7.10;90.40;;;;;;5016713;28;20057;-68
2022/04/18 03:51:15;;;;;;;21.67;14.55;;;7.10;90.40;;;;;;5017683;28;20190;-69
2022/04/18 03:53:41;;;;;;;19.50;14.60;;;7.10;90.30;;;;;;5017698;28;20041;-69
2022/04/18 03:56:06;;;;;;;22.10;14.73;;;7.00;90.40;;;;;;5001119;28;20046;-69
2022/04/18 03:58:32;;;;;;;21.10;14.20;;;7.00;90.40;;;;;;5001480;28;20120;-69
2022/04/18 04:00:57;;;;;;;21.35;14.73;;;7.00;90.50;;;;;;4998330;28;20042;-69
2022/04/18 04:03:24;;;;;;;22.20;15.82;;;7.00;90.60;;;;;;4997848;28;20112;-69
2022/04/18 04:05:50;;;;;;;20.50;14.43;;;6.90;90.40;;;;;;4997482;28;20046;-69
2022/04/18 04:08:18;;;;;;;20.88;15.32;;;6.90;90.70;;;;;;4981751;28;20096;-69
2022/04/18 04:10:44;;;;;;;25.00;15.77;;;6.90;90.70;;;;;;5014611;28;20045;-68
2022/04/18 04:13:09;;;;;;;23.17;14.82;;;6.90;90.80;;;;;;5001157;28;20048;-68
2022/04/18 04:15:35;;;;;;;21.42;15.45;;;6.90;90.80;;;;;;5017075;28;20080;-68
2022/04/18 04:18:00;;;;;;;22.33;14.45;;;6.90;91.00;;;;;;5000733;28;20043;-69
2022/04/18 04:20:26;;;;;;;20.63;15.05;;;6.90;90.80;;;;;;5016840;28;20041;-68
2022/04/18 04:22:51;;;;;;;22.77;15.20;;;6.90;90.70;;;;;;5000976;28;20034;-69
2022/04/18 04:25:18;;;;;;;20.90;14.32;;;6.90;90.80;;;;;;5016517;28;20037;-68
2022/04/18 04:27:46;;;;;;;24.38;15.38;;;6.80;91.00;;;;;;5017029;28;20042;-68
2022/04/18 04:30:12;;;;;;;22.13;16.02;;;6.80;91.30;;;;;;5000814;28;20131;-69
2022/04/18 04:32:38;;;;;;;22.75;14.95;;;6.80;91.20;;;;;;5016848;28;20474;-67
2022/04/18 04:35:04;;;;;;;22.05;15.20;;;6.70;91.40;;;;;;5016526;28;20041;-69
2022/04/18 04:37:30;;;;;;;24.48;15.60;;;6.70;91.50;;;;;;5016854;28;20420;-69
2022/04/18 04:39:55;;;;;;;20.23;14.57;;;6.70;91.30;;;;;;5000176;28;20124;-69
2022/04/18 04:42:21;;;;;;;21.55;15.23;;;6.70;91.50;;;;;;5000716;28;20395;-69
2022/04/18 04:44:46;;;;;;;23.50;14.80;;;6.70;91.50;;;;;;5016163;28;20053;-69
2022/04/18 04:47:12;;;;;;;23.33;15.20;;;6.70;91.60;;;;;;5016641;28;20132;-70
2022/04/18 04:49:38;;;;;;;23.27;15.50;;;6.70;91.90;;;;;;5016906;28;20056;-69
2022/04/18 04:52:05;;;;;;;21.10;14.82;;;6.70;92.00;;;;;;5016655;28;20469;-69
2022/04/18 04:54:31;;;;;;;21.80;14.52;;;6.70;91.80;;;;;;5016082;28;20100;-69
2022/04/18 04:56:57;;;;;;;18.95;13.85;;;6.70;91.70;;;;;;5024915;28;20042;-70
2022/04/18 04:59:23;;;;;;;20.58;14.32;;;6.70;91.70;;;;;;5029356;28;20037;-69
2022/04/18 05:01:48;;;;;;;21.45;14.63;;;6.70;91.70;;;;;;5026885;28;20079;-69
2022/04/18 05:04:14;;;;;;;19.30;13.18;;;6.70;91.80;;;;;;5016160;28;20045;-68
2022/04/18 05:06:40;;;;;;;20.42;14.05;;;6.70;91.80;;;;;;5030656;28;20037;-70
2022/04/18 05:09:06;;;;;;;19.33;14.50;;;6.60;91.90;;;;;;5016016;28;20136;-68
2022/04/18 05:11:32;;;;;;;20.77;14.02;;;6.70;91.90;;;;;;5023765;28;20038;-69
2022/04/18 05:13:58;;;;;;;23.63;14.68;;;6.70;92.00;;;;;;5022068;28;20133;-68
2022/04/18 05:16:24;;;;;;;19.95;13.85;;;6.70;92.00;;;;;;5014968;28;20120;-69
2022/04/18 05:18:50;;;;;;;20.65;13.98;;;6.70;92.00;;;;;;5025986;28;20107;-68
2022/04/18 05:21:16;;;;;;;22.75;15.10;;;6.70;92.10;;;;;;5023395;28;20112;-69
2022/04/18 05:23:42;;;;;;;21.10;14.27;;;6.70;92.00;;;;;;5007554;28;20063;-69
2022/04/18 05:26:10;;;;;;;20.02;14.35;;;6.80;92.00;;;;;;5016066;28;20049;-69
2022/04/18 05:28:36;;;;;;;21.30;13.45;;;6.80;91.90;;;;;;5031932;28;20107;-69
2022/04/18 05:31:02;;;;;;;20.40;13.90;;;6.90;91.90;;;;;;5026785;28;20044;-69
2022/04/18 05:33:28;;;;;;;20.55;14.38;;;7.10;91.80;;;;;;5015682;28;20048;-69
2022/04/18 05:35:54;;;;;;;20.40;14.18;;;7.30;91.50;;;;;;5026238;28;20045;-67
2022/04/18 05:38:20;;;;;;;21.33;14.00;;;7.40;91.30;;;;;;5032429;28;20048;-70
2022/04/18 05:40:46;;;;;;;18.60;14.38;;;7.80;91.00;;;;;;5017989;28;20040;-69
2022/04/18 05:43:11;;;;;;;19.42;14.05;;;8.50;90.10;;;;;;5016122;28;20446;-69
2022/04/18 05:45:38;;;;;;;21.35;14.30;;;9.30;86.70;;;;;;5015338;28;20072;-69
2022/04/18 05:48:04;;;;;;;22.30;14.15;;;9.90;85.00;;;;;;5015793;28;20041;-69
2022/04/18 05:50:30;;;;;;;19.73;14.05;;;10.30;83.30;;;;;;5000862;28;20050;-70
2022/04/18 05:52:56;;;;;;;19.17;13.68;;;10.70;80.80;;;;;;4996147;28;20046;-69
2022/04/18 05:55:22;;;;;;;19.58;14.43;;;11.00;80.20;;;;;;4995712;28;20045;-70
2022/04/18 05:57:49;;;;;;;21.88;14.60;;;11.60;78.10;;;;;;4996364;28;20034;-69
2022/04/18 06:00:16;;;;;;;19.98;13.90;;;11.70;77.80;;;;;;4996745;28;20034;-69
2022/04/18 06:02:41;;;;;;;19.98;13.10;;;11.90;76.40;;;;;;4996040;28;20467;-70
2022/04/18 06:05:07;;;;;;;17.55;13.57;;;12.20;75.20;;;;;;4995736;28;20129;-69
2022/04/18 06:07:34;;;;;;;20.13;12.98;;;12.20;73.40;;;;;;4996007;28;20418;-69
2022/04/18 06:10:03;;;;;;;20.40;13.23;;;12.40;73.20;;;;;;5006358;28;20107;-70
2022/04/18 06:12:29;;;;;;;18.25;13.50;;;12.50;72.50;;;;;;5017533;28;20204;-70
2022/04/18 06:14:54;;;;;;;18.20;12.93;;;12.70;71.80;;;;;;5019442;28;20460;-70
2022/04/18 06:17:20;;;;;;;18.75;13.32;;;13.00;71.00;;;;;;5019501;28;20045;-71
2022/04/18 06:19:46;;;;;;;18.42;13.68;;;13.10;70.80;;;;;;4994571;28;20493;-71
2022/04/18 06:22:11;;;;;;;18.33;13.13;;;13.10;70.40;;;;;;4999989;28;20049;-69
2022/04/18 06:24:37;;;;;;;16.48;12.02;;;13.50;70.50;;;;;;4999620;28;20052;-70
2022/04/18 06:27:03;;;;;;;22.38;13.43;;;13.80;69.20;;;;;;4999717;28;20049;-70
2022/04/18 06:29:28;;;;;;;17.88;13.13;;;13.80;69.20;;;;;;4989641;28;20052;-70
2022/04/18 06:31:54;;;;;;;18.00;13.35;;;14.00;68.30;;;;;;4998087;28;20463;-69
2022/04/18 06:34:21;;;;;;;20.13;13.50;;;14.00;68.00;;;;;;5015200;28;20045;-70
2022/04/18 06:36:46;;;;;;;17.63;13.25;;;14.10;68.00;;;;;;5015506;28;20459;-69
2022/04/18 06:39:15;;;;;;;18.17;13.27;;;14.20;67.70;;;;;;5017383;28;20057;-71
2022/04/18 06:41:42;;;;;;;20.15;13.18;;;14.20;67.40;;;;;;4998890;28;20042;-72
2022/04/18 06:44:07;;;;;;;19.77;13.40;;;14.40;67.90;;;;;;5001123;28;20049;-70
2022/04/18 06:46:33;;;;;;;17.45;13.18;;;14.20;67.70;;;;;;5035220;28;20064;-70
2022/04/18 06:48:59;;;;;;;18.60;12.77;;;14.50;67.90;;;;;;5035261;28;20486;-70
2022/04/18 06:51:24;;;;;;;16.75;12.00;;;14.20;67.70;;;;;;5018987;28;20100;-70
2022/04/18 06:53:50;;;;;;;17.35;12.35;;;14.60;67.70;;;;;;5019289;28;20091;-71
2022/04/18 06:58:59;;;;;;;15.10;12.07;;;14.70;67.40;;;;;;5018698;28;20052;-70
2022/04/18 07:01:25;;;;;;;19.27;11.93;;;14.90;67.50;;;;;;5002541;28;20037;-70
2022/04/18 07:03:51;;;;;;;15.73;11.57;;;15.00;67.20;;;;;;5002423;28;20056;-69
2022/04/18 07:06:16;;;;;;;15.60;11.80;;;15.30;66.30;;;;;;5001942;28;20091;-69
2022/04/18 07:08:45;;;;;;;16.35;11.30;;;15.30;65.60;;;;;;5018792;28;20041;-70
2022/04/18 07:11:11;;;;;;;18.40;11.20;;;15.20;64.40;;;;;;5018495;28;20124;-69
2022/04/18 07:13:36;;;;;;;15.43;10.93;;;15.20;64.90;;;;;;5018742;28;20133;-70
2022/04/18 07:16:02;;;;;;;15.20;11.23;;;15.10;64.60;;;;;;5001782;28;20091;-70
2022/04/18 07:18:31;;;;;;;16.42;11.32;;;15.20;65.20;;;;;;5018510;28;20037;-69
2022/04/18 07:20:56;;;;;;;15.57;11.23;;;15.00;65.70;;;;;;5017932;28;20091;-70
2022/04/18 07:23:22;;;;;;;16.00;11.25;;;14.60;65.60;;;;;;5033677;28;20048;-71
2022/04/18 07:25:47;;;;;;;16.27;10.15;;;14.40;66.70;;;;;;5034258;28;20037;-71
2022/04/18 07:28:13;;;;;;;15.50;10.73;;;14.00;68.10;;;;;;5034909;28;20041;-70
2022/04/18 07:30:38;;;;;;;15.98;10.57;;;14.00;67.90;;;;;;5021853;28;20463;-72
2022/04/18 07:33:04;;;;;;;16.52;11.80;;;14.00;68.90;;;;;;5001840;28;20069;-70
2022/04/18 07:35:32;;;;;;;13.57;9.50;;;13.90;68.60;;;;;;5017648;28;20046;-70
2022/04/18 07:40:43;;;;;;;17.02;9.93;;;13.90;69.20;;;;;;5023943;28;20067;-70
2022/04/18 07:43:09;;;;;;;14.10;10.05;;;14.10;69.70;;;;;;5018270;28;20057;-70
2022/04/18 07:45:38;;;;;;;15.40;9.63;;;14.10;69.60;;;;;;5017529;28;20061;-70
2022/04/18 07:48:08;;;;;;;13.45;9.82;;;14.10;69.70;;;;;;5017688;28;20052;-70
2022/04/18 07:53:18;;;;;;;;;;;14.40;69.90;;;;;;5004272;28;20053;-70
2022/04/18 07:55:43;;;;;;;15.60;10.00;;;14.40;69.70;;;;;;5017492;28;19928;-70
2022/04/18 07:58:11;;;;;;;14.57;9.52;;;14.60;70.00;;;;;;5008412;28;20041;-71
2022/04/18 08:00:36;;;;;;;16.52;9.48;;;14.80;70.10;;;;;;5025323;28;20449;-70
2022/04/18 08:03:02;;;;;;;12.68;9.20;;;14.70;69.50;;;;;;5029174;28;20033;-72
2022/04/18 08:05:28;;;;;;;10.93;8.05;;;14.80;68.90;;;;;;5033673;28;20128;-71
2022/04/18 08:07:53;;;;;;;12.23;8.43;;;14.90;67.10;;;;;;5012030;28;20379;-71
2022/04/18 08:10:19;;;;;;;12.93;7.95;;;15.00;67.20;;;;;;5032104;28;20411;-70
2022/04/18 08:12:45;;;;;;;12.35;8.50;;;15.00;66.20;;;;;;5027149;28;20037;-70
2022/04/18 08:15:10;;;;;;;13.15;8.88;;;15.30;66.70;;;;;;5033403;28;20118;-72
2022/04/18 08:17:39;;;;;;;12.35;7.95;;;15.20;66.40;;;;;;5025083;28;20108;-70
2022/04/18 08:20:06;;;;;;;11.07;8.50;;;15.30;65.40;;;;;;5026391;28;20053;-70
2022/04/18 08:22:31;;;;;;;12.15;9.32;;;15.40;66.40;;;;;;5017203;28;20052;-70
2022/04/18 08:24:57;;;;;;;12.00;8.35;;;15.50;67.00;;;;;;5000776;28;20125;-71
2022/04/18 08:27:23;;;;;;;14.38;8.65;;;15.50;66.20;;;;;;5017650;28;20124;-70
2022/04/18 08:29:48;;;;;;;13.07;9.02;;;15.50;66.50;;;;;;5016619;28;20478;-71
2022/04/18 08:32:14;;;;;;;12.88;8.95;;;15.60;66.90;;;;;;5033490;28;20037;-70
2022/04/18 08:34:40;;;;;;;12.02;8.82;;;15.60;66.20;;;;;;5032489;28;20350;-70
2022/04/18 08:37:07;;;;;;;12.65;9.13;;;15.60;66.70;;;;;;5017367;28;20073;-68
2022/04/18 08:39:33;;;;;;;14.57;9.95;;;15.60;66.80;;;;;;5029570;28;20045;-71
2022/04/18 08:41:59;;;;;;;13.52;8.80;;;15.60;66.80;;;;;;5032988;28;20052;-71
2022/04/18 08:44:30;;;;;;;11.30;8.70;;;15.70;67.20;;;;;;5031574;28;20116;-70
2022/04/18 08:46:57;;;;;;;14.23;9.60;;;15.70;67.50;;;;;;5016735;28;20497;-70
2022/04/18 08:52:49;;;;;;;;;;;16.00;67.90;;;;;;5017579;28;20056;-70
2022/04/18 08:54:57;;;;;;;13.43;9.20;;;16.00;67.30;;;;;;5025201;28;20023;-72
2022/04/18 08:57:23;;;;;;;12.57;9.00;;;16.20;67.80;;;;;;5016614;28;20057;-71
2022/04/18 08:59:52;;;;;;;11.80;8.68;;;16.30;67.20;;;;;;5016548;28;20041;-73
2022/04/18 09:02:17;;;;;;;13.25;8.48;;;16.30;67.30;;;;;;5034056;28;20382;-70
2022/04/18 09:04:44;;;;;;;13.13;8.85;;;16.40;67.40;;;;;;5034042;28;20029;-71
2022/04/18 09:07:11;;;;;;;13.30;8.88;;;16.50;66.90;;;;;;5034082;28;20052;-70
2022/04/18 09:09:37;;;;;;;15.18;8.77;;;16.60;67.00;;;;;;5016816;28;20076;-70
2022/04/18 09:12:18;;;;;;;11.27;8.40;;;16.60;67.00;;;;;;5016503;28;20045;-69
2022/04/18 09:14:45;;;;;;;14.10;9.02;;;16.60;66.90;;;;;;5016296;28;20375;-70
2022/04/18 09:17:11;;;;;;;11.43;8.93;;;16.70;67.20;;;;;;5016394;28;20064;-70
2022/04/18 09:19:37;;;;;;;12.40;8.13;;;16.90;67.40;;;;;;5016342;28;20037;-70
2022/04/18 09:22:04;;;;;;;12.50;8.48;;;17.00;66.80;;;;;;5020660;28;20033;-70
2022/04/18 09:24:33;;;;;;;14.45;8.27;;;17.10;67.00;;;;;;5029973;28;20041;-69
2022/04/18 09:27:04;;;;;;;11.35;8.57;;;17.10;67.10;;;;;;5031651;28;20189;-69
2022/04/18 09:29:38;;;;;;;12.25;8.25;;;17.20;67.10;;;;;;5023040;28;20071;-69
2022/04/18 09:32:08;;;;;;;15.95;8.25;;;17.30;67.60;;;;;;5028640;28;20053;-70
2022/04/18 09:34:33;;;;;;;13.25;8.05;;;17.40;66.90;;;;;;5020597;28;20041;-68
2022/04/18 09:37:14;;;;;;;9.98;7.43;;;17.50;67.10;;;;;;5025301;28;20091;-67
2022/04/18 09:39:44;;;;;;;9.70;7.07;;;17.50;67.10;;;;;;5020796;28;20112;-68
2022/04/18 09:42:14;;;;;;;12.23;7.85;;;17.70;66.40;;;;;;5026648;28;20485;-67
2022/04/18 09:44:40;;;;;;;12.93;7.72;;;17.70;66.10;;;;;;5027020;28;20068;-67
2022/04/18 09:47:06;;;;;;;10.50;6.50;;;17.70;65.90;;;;;;5021311;28;20124;-67
2022/04/18 09:49:39;;;;;;;9.63;6.80;;;17.80;65.50;;;;;;5020842;28;21599;-67
2022/04/18 09:52:11;;;;;;;10.85;7.20;;;17.80;65.50;;;;;;5019570;28;20045;-68
2022/04/18 09:54:55;;;;;;;9.23;5.47;;;17.90;66.20;;;;;;5030364;28;20347;-68
2022/04/18 09:57:28;;;;;;;7.70;5.10;;;17.90;64.30;;;;;;5032256;28;20041;-68
2022/04/18 09:59:56;;;;;;;6.97;4.35;;;17.90;61.20;;;;;;5026375;28;20049;-68
2022/04/18 10:02:24;;;;;;;7.88;5.07;;;18.10;61.60;;;;;;5028184;28;20040;-67
2022/04/18 10:04:51;;;;;;;9.70;5.53;;;18.30;59.70;;;;;;5029760;28;20045;-67
2022/04/18 10:07:17;;;;;;;7.28;5.25;;;18.40;60.30;;;;;;5031455;28;20133;-67
2022/04/18 10:09:43;;;;;;;7.70;4.80;;;18.40;60.50;;;;;;4994737;28;20124;-68
2022/04/18 10:12:10;;;;;;;6.57;4.10;;;18.40;58.10;;;;;;5031692;28;20132;-67
2022/04/18 10:14:37;;;;;;;7.03;4.43;;;18.40;56.20;;;;;;5015067;28;20041;-66
2022/04/18 10:17:06;;;;;;;7.45;4.10;;;18.50;58.30;;;;;;5032745;28;20080;-65
2022/04/18 10:20:19;;;;;;;7.88;4.20;;;18.70;54.30;;;;;;5027987;28;20037;-68
2022/04/18 10:23:06;;;;;;;5.40;3.03;;;18.60;55.90;;;;;;4957698;28;20056;-65
2022/04/18 10:26:04;;;;;;;5.35;3.22;;;18.90;52.00;;;;;;5015203;28;20033;-65
2022/04/18 10:28:37;;;;;;;5.63;3.30;;;18.80;52.90;;;;;;4999851;28;20065;-65
2022/04/18 10:31:13;;;;;;;6.07;3.13;;;18.70;52.30;;;;;;5033052;28;20107;-64
2022/04/18 10:33:43;;;;;;;5.90;2.83;;;18.90;53.50;;;;;;5033335;28;20096;-65
2022/04/18 10:36:09;;;;;;;5.18;3.17;;;19.10;51.10;;;;;;4998975;28;20394;-66
2022/04/18 10:38:37;;;;;;;5.40;3.45;;;19.30;51.10;;;;;;5031375;28;20029;-63
2022/04/18 10:41:16;;;;;;;5.30;2.83;;;19.40;50.60;;;;;;5024334;28;20076;-63
2022/04/18 10:43:58;;;;;;;4.93;2.95;;;19.50;49.00;;;;;;5014066;28;20148;-64
2022/04/18 10:46:23;;;;;;;3.83;2.50;;;19.50;49.20;;;;;;5026030;28;20049;-63
2022/04/18 10:49:00;;;;;;;4.32;2.90;;;19.50;47.40;;;;;;5032954;28;20458;-64
2022/04/18 10:51:37;;;;;;;5.63;3.47;;;19.40;47.40;;;;;;5013850;28;20414;-63
2022/04/18 10:54:20;;;;;;;6.78;3.67;;;19.60;49.70;;;;;;4999226;28;20068;-63
2022/04/18 10:56:53;;;;;;;5.25;3.25;;;19.50;49.30;;;;;;5015523;28;20068;-63
2022/04/18 10:59:23;;;;;;;5.30;3.25;;;19.60;48.60;;;;;;5035497;28;20095;-63
2022/04/18 11:01:49;;;;;;;4.85;3.30;;;19.50;49.30;;;;;;5019066;28;20597;-63
2022/04/18 11:04:15;;;;;;;6.25;2.90;;;19.70;49.70;;;;;;5036289;28;20051;-64
2022/04/18 11:06:43;;;;;;;4.70;3.30;;;19.70;49.20;;;;;;5018847;28;20057;-63
2022/04/18 11:09:11;;;;;;;5.68;3.80;;;19.80;50.00;;;;;;5018541;28;20049;-64
2022/04/18 11:11:55;;;;;;;6.43;3.53;;;19.70;48.70;;;;;;5018851;28;20049;-63
2022/04/18 11:14:30;;;;;;;5.55;3.00;;;19.90;48.60;;;;;;5002684;28;20527;-64
2022/04/18 11:17:02;;;;;;;5.43;3.20;;;19.90;48.50;;;;;;5018533;28;20072;-64
2022/04/18 11:19:35;;;;;;;6.82;3.05;;;20.00;48.50;;;;;;5014349;28;20034;-64
2022/04/18 11:22:01;;;;;;;3.78;2.85;;;20.10;46.70;;;;;;4999443;28;20069;-64
2022/04/18 11:24:34;;;;;;;7.10;3.55;;;20.00;47.50;;;;;;4998981;28;20073;-64
2022/04/18 11:27:01;;;;;;;5.10;3.42;;;20.10;47.60;;;;;;4998644;28;20436;-64
2022/04/18 11:29:29;;;;;;;6.75;3.35;;;20.20;48.20;;;;;;5019095;28;20052;-64
2022/04/18 11:31:55;;;;;;;4.75;3.10;;;20.20;47.40;;;;;;5035803;28;20041;-64
2022/04/18 11:34:28;;;;;;;5.60;3.30;;;20.20;46.60;;;;;;5018168;28;20288;-64
2022/04/18 11:37:00;;;;;;;5.78;3.25;;;20.30;47.30;;;;;;5018217;28;20084;-64
2022/04/18 11:39:42;;;;;;;5.00;3.30;;;20.30;47.00;;;;;;5017650;28;20048;-65
2022/04/18 11:42:08;;;;;;;6.50;3.70;;;20.40;48.10;;;;;;5035773;28;20374;-65
2022/04/18 11:44:41;;;;;;;5.18;3.70;;;20.60;47.50;;;;;;5035628;28;20045;-64
2022/04/18 11:47:09;;;;;;;5.60;3.90;;;20.30;48.10;;;;;;5018297;28;20210;-64
2022/04/18 11:49:35;;;;;;;5.65;3.80;;;20.30;47.20;;;;;;5017459;28;20462;-64
2022/04/18 11:52:00;;;;;;;7.00;3.90;;;20.20;48.10;;;;;;5035674;28;20038;-64
2022/04/18 11:54:27;;;;;;;5.97;3.80;;;20.30;48.50;;;;;;5018144;28;20484;-65
2022/04/18 11:56:57;;;;;;;7.95;4.18;;;20.30;48.00;;;;;;5017955;28;20044;-65
2022/04/18 11:59:27;;;;;;;5.72;4.20;;;20.40;48.30;;;;;;5034988;28;20033;-65
2022/04/18 12:07:21;;;;;;;6.40;4.32;;;20.20;48.20;;;;;;5035171;28;20004;-65
2022/04/18 12:09:47;;;;;;;6.25;4.20;;;20.10;47.90;;;;;;5016289;28;20108;-66
2022/04/18 12:12:39;;;;;;;6.80;4.32;;;20.10;48.40;;;;;;5035407;28;20060;-65
2022/04/18 12:15:06;;;;;;;6.68;4.60;;;20.10;48.60;;;;;;5013916;28;20064;-66
2022/04/18 12:17:34;;;;;;;5.38;4.20;;;20.20;49.40;;;;;;5017294;28;20132;-64
2022/04/18 12:20:27;;;;;;;6.13;4.22;;;20.30;49.10;;;;;;5016795;28;20045;-64
2022/04/18 12:22:58;;;;;;;6.00;4.20;;;20.30;48.30;;;;;;5035299;28;20029;-64
2022/04/18 12:25:32;;;;;;;4.90;3.83;;;20.20;47.80;;;;;;5001498;28;20057;-64
2022/04/18 12:28:00;;;;;;;6.30;3.83;;;20.30;47.80;;;;;;5035018;28;20046;-65
2022/04/18 12:30:27;;;;;;;5.22;3.38;;;20.20;48.80;;;;;;5034090;28;20439;-64
2022/04/18 12:32:54;;;;;;;6.63;4.20;;;20.30;48.40;;;;;;5017280;28;20044;-65
2022/04/18 12:35:39;;;;;;;5.95;3.75;;;20.40;47.50;;;;;;5016952;28;20084;-64
2022/04/18 12:38:08;;;;;;;7.13;4.22;;;20.50;49.00;;;;;;5034966;28;20065;-65
2022/04/18 12:40:54;;;;;;;6.10;4.00;;;20.60;48.80;;;;;;5033933;28;20493;-64
2022/04/18 12:43:20;;;;;;;6.47;4.05;;;20.40;48.60;;;;;;5000664;28;20363;-64
2022/04/18 12:45:55;;;;;;;5.07;3.50;;;20.30;48.80;;;;;;5016724;28;20487;-65
2022/04/18 12:48:29;;;;;;;5.20;3.60;;;20.30;48.50;;;;;;5017184;28;20056;-65
2022/04/18 12:50:57;;;;;;;5.53;4.00;;;20.20;47.50;;;;;;5016182;28;20045;-65
2022/04/18 12:53:45;;;;;;;6.28;3.63;;;20.30;49.30;;;;;;5034343;28;20120;-64
2022/04/18 12:56:11;;;;;;;4.70;3.42;;;20.40;48.30;;;;;;5034547;28;20056;-64
2022/04/18 12:58:41;;;;;;;6.05;3.80;;;20.50;49.10;;;;;;5034656;28;20056;-64
2022/04/18 13:01:08;;;;;;;6.57;4.28;;;20.50;48.30;;;;;;5017373;28;20037;-65
2022/04/18 13:03:42;;;;;;;5.25;3.72;;;20.60;48.60;;;;;;5014429;28;20344;-65
2022/04/18 13:06:08;;;;;;;6.05;4.18;;;20.60;47.70;;;;;;5014639;28;20115;-65